Dagmar Aaen — DIXX — position and weather

sailwx.info

Track history (hours):
 
Tides and Currents Weather Stations Pressure Air Temp Water Temp Dewpoint Dewpoint Depression Visibility Wind Speed Wind Dir Waves Ship Positions

Dagmar Aaen

Last reported at 2017-Aug-30 08:42 UTC. Time now 2017-Sep-22 17:04 UTC.
Position N 54°47' E 010°29'.
Warning: this ship's position is 23 days out of date.

Length 24 m; beam 4.8 m; draft 2.5 m.

Type: Sailing vessel. MMSI: 211249810.

Date/timePositionNaut miles runAvg speedWind from/ knotsBaromVisibWave heightAir tempDewpointWater temp
2017-Aug-30 08:42N 54°47' E 010°29'3 6.2
2017-Aug-30 08:16N 54°46' E 010°34'2 6.5
2017-Aug-30 08:00N 54°46' E 010°37'2 4.2
2017-Aug-30 07:30N 54°45' E 010°40'0 0.0
2017-Aug-30 07:00N 54°45' E 010°40'0 0.0
2017-Aug-30 06:30N 54°45' E 010°40'0 0.0
2017-Aug-30 06:00N 54°45' E 010°40'0 0.0
2017-Aug-30 05:30N 54°45' E 010°40'0 0.0
2017-Aug-30 04:57N 54°45' E 010°40'0 0.0
2017-Aug-30 04:30N 54°45' E 010°40'0 0.0
2017-Aug-30 04:00N 54°45' E 010°40'0 0.0
2017-Aug-30 03:30N 54°45' E 010°40'0 0.0
2017-Aug-30 02:57N 54°45' E 010°40'0 0.0
2017-Aug-30 02:30N 54°45' E 010°40'0 0.0
2017-Aug-30 01:57N 54°45' E 010°40'0 0.0
2017-Aug-30 01:30N 54°45' E 010°40'0 0.0
2017-Aug-30 01:00N 54°45' E 010°40'0 0.0
2017-Aug-30 00:30N 54°45' E 010°40'0 0.0
2017-Aug-30 00:00N 54°45' E 010°40'0 0.0
2017-Aug-29 23:30N 54°45' E 010°40'0 0.0
2017-Aug-29 23:00N 54°45' E 010°40'0 0.0
2017-Aug-29 22:30N 54°45' E 010°40'0 0.0
2017-Aug-29 21:54N 54°45' E 010°40'0 0.0
2017-Aug-29 21:30N 54°45' E 010°40'0 0.0
2017-Aug-29 21:00N 54°45' E 010°40'0 0.0
2017-Aug-29 20:30N 54°45' E 010°40'0 0.0
2017-Aug-29 19:57N 54°45' E 010°40'0 0.0
2017-Aug-29 19:30N 54°45' E 010°40'0 0.0
2017-Aug-29 19:00N 54°45' E 010°40'0 0.0
2017-Aug-29 18:30N 54°45' E 010°40'0 0.0
2017-Aug-29 18:00N 54°45' E 010°40'0 0.0
2017-Aug-29 17:30N 54°45' E 010°40'0 0.0
2017-Aug-29 17:00N 54°45' E 010°40'0 0.9
2017-Aug-29 16:31N 54°45' E 010°40'3 5.3
2017-Aug-29 16:00N 54°43' E 010°41'3 6.0
2017-Aug-29 15:30N 54°42' E 010°46'3 6.8
2017-Aug-29 15:00N 54°40' E 010°52'4 7.1
2017-Aug-29 14:30N 54°39' E 010°57'4 7.0
2017-Aug-29 14:00N 54°38' E 011°03'4 7.1
2017-Aug-29 13:30N 54°37' E 011°09'4 7.4
2017-Aug-29 13:00N 54°36' E 011°15'4 7.2
2017-Aug-29 12:30N 54°34' E 011°21'4 7.0
2017-Aug-29 12:00N 54°33' E 011°26'3 6.8
2017-Aug-29 11:30N 54°32' E 011°32'2 4.9
2017-Aug-29 11:00N 54°31' E 011°36'2 3.3
2017-Aug-29 10:30N 54°31' E 011°39'2 3.9
2017-Aug-29 10:00N 54°31' E 011°42'2 4.3
2017-Aug-29 09:31N 54°31' E 011°46'2 4.7
2017-Aug-29 09:00N 54°33' E 011°46'3 5.3
2017-Aug-29 08:30N 54°36' E 011°46'2 4.7
2017-Aug-29 08:01N 54°38' E 011°46'2 3.9
2017-Aug-29 07:31N 54°40' E 011°44'0 0.0
2017-Aug-29 05:39N 54°40' E 011°44'0 0.0
2017-Aug-29 05:30N 54°40' E 011°44'0 0.0
2017-Aug-29 05:00N 54°40' E 011°44'0 0.0
2017-Aug-29 04:30N 54°40' E 011°44'0 0.0
2017-Aug-29 04:00N 54°40' E 011°44'0 0.0
2017-Aug-29 03:30N 54°40' E 011°44'0 0.0
2017-Aug-29 03:00N 54°40' E 011°44'0 0.0
2017-Aug-29 02:30N 54°40' E 011°44'0 0.0
2017-Aug-29 02:00N 54°40' E 011°44'0 0.0
2017-Aug-29 01:30N 54°40' E 011°44'0 0.0
2017-Aug-29 01:00N 54°40' E 011°44'0 0.0
2017-Aug-29 00:21N 54°40' E 011°44'0 0.0
2017-Aug-28 23:57N 54°40' E 011°44'0 0.0
2017-Aug-28 23:15N 54°40' E 011°44'0 0.0
2017-Aug-28 23:00N 54°40' E 011°44'0 0.0
2017-Aug-28 22:30N 54°40' E 011°44'0 0.0
2017-Aug-28 22:00N 54°40' E 011°44'0 0.0
2017-Aug-28 21:30N 54°40' E 011°44'0 0.0
2017-Aug-28 20:54N 54°40' E 011°44'0 0.0
2017-Aug-28 20:30N 54°40' E 011°44'0 0.0
2017-Aug-28 20:00N 54°40' E 011°44'0 0.0
2017-Aug-28 19:30N 54°40' E 011°44'0 0.0
2017-Aug-28 19:00N 54°40' E 011°44'0 0.0
2017-Aug-28 18:30N 54°40' E 011°44'0 0.0
2017-Aug-28 18:00N 54°40' E 011°44'0 0.0
2017-Aug-28 17:30N 54°40' E 011°44'0 0.0
2017-Aug-28 17:00N 54°40' E 011°44'0 0.0
2017-Aug-28 16:15N 54°40' E 011°44'0 0.0
2017-Aug-28 15:57N 54°40' E 011°44'0 0.0
2017-Aug-28 15:22N 54°40' E 011°44'1 2.2
2017-Aug-28 15:01N 54°39' E 011°44'2 5.0
2017-Aug-28 14:31N 54°37' E 011°47'3 6.0
2017-Aug-28 14:01N 54°34' E 011°46'3 5.7
2017-Aug-28 13:31N 54°33' E 011°50'3 5.8
2017-Aug-28 13:01N 54°32' E 011°55'3 5.8
2017-Aug-28 12:31N 54°33' E 012°00'3 5.6
2017-Aug-28 12:01N 54°35' E 012°03'27 6.2
2017-Aug-28 07:42N 54°57' E 012°28'49 1.6
2017-Aug-27 00:49N 54°31' E 013°39'0 0.0
2017-Aug-27 00:19N 54°31' E 013°39'0 0.0
2017-Aug-26 23:43N 54°31' E 013°39'0 0.0
2017-Aug-26 23:07N 54°31' E 013°39'0 0.0
2017-Aug-26 22:55N 54°31' E 013°39'0 0.0
2017-Aug-26 22:19N 54°31' E 013°39'0 0.0
2017-Aug-26 21:55N 54°31' E 013°39'0 0.0
2017-Aug-26 21:25N 54°31' E 013°39'0 0.0
2017-Aug-26 20:55N 54°31' E 013°39'0 0.0
2017-Aug-26 20:25N 54°31' E 013°39'0 0.0
2017-Aug-26 19:49N 54°31' E 013°39'0 0.0
2017-Aug-26 19:25N 54°31' E 013°39'0 0.0
2017-Aug-26 18:37N 54°31' E 013°39'0 0.0
2017-Aug-26 18:25N 54°31' E 013°39'33 4.7
2017-Aug-26 11:29N 54°46' E 014°28'4 6.3
2017-Aug-26 10:50N 54°48' E 014°34'2 6.3
2017-Aug-26 10:29N 54°49' E 014°38'3 6.3
2017-Aug-26 10:00N 54°51' E 014°42'3 6.2
2017-Aug-26 09:30N 54°52' E 014°47'3 6.1
2017-Aug-26 09:00N 54°54' E 014°51'3 6.1
2017-Aug-26 08:30N 54°55' E 014°56'3 6.0
2017-Aug-26 08:00N 54°57' E 015°00'3 6.0
2017-Aug-26 07:30N 54°58' E 015°05'6 0.4
2017-Aug-25 15:08N 55°04' E 015°08'1 5.6
2017-Aug-25 14:55N 55°05' E 015°10'2 4.5
2017-Aug-25 14:31N 55°06' E 015°12'3 3.4
2017-Aug-25 13:30N 55°09' E 015°10'3 5.1
2017-Aug-25 13:00N 55°11' E 015°07'3 5.2
2017-Aug-25 12:30N 55°12' E 015°03'3 5.1
2017-Aug-25 12:01N 55°14' E 014°60'3 5.6
2017-Aug-25 11:30N 55°16' E 014°56'3 5.7
2017-Aug-25 11:00N 55°17' E 014°51'3 6.1
2017-Aug-25 10:30N 55°19' E 014°47'2 3.1
2017-Aug-25 10:00N 55°17' E 014°48'1 1.0
2017-Aug-25 09:23N 55°17' E 014°48'0 0.0
2017-Aug-25 08:59N 55°17' E 014°48'0 0.0
2017-Aug-25 08:28N 55°17' E 014°48'0 0.0
2017-Aug-25 07:58N 55°17' E 014°48'0 0.0
2017-Aug-25 07:29N 55°17' E 014°48'0 0.0
2017-Aug-25 06:52N 55°17' E 014°48'0 0.0
2017-Aug-25 06:28N 55°17' E 014°48'0 0.0
2017-Aug-25 05:58N 55°17' E 014°48'0 0.0
2017-Aug-25 05:28N 55°17' E 014°48'0 0.0
2017-Aug-25 04:58N 55°17' E 014°48'0 0.0
2017-Aug-25 04:28N 55°17' E 014°48'0 0.0
2017-Aug-25 03:58N 55°17' E 014°48'0 0.0
2017-Aug-25 03:22N 55°17' E 014°48'0 0.0
2017-Aug-25 02:58N 55°17' E 014°48'0 0.0
2017-Aug-25 02:28N 55°17' E 014°48'0 0.0
2017-Aug-25 01:59N 55°17' E 014°48'0 0.0
2017-Aug-25 01:28N 55°17' E 014°48'0 0.0
2017-Aug-25 00:59N 55°17' E 014°48'0 0.0
2017-Aug-25 00:29N 55°17' E 014°48'0 0.0
2017-Aug-24 23:58N 55°17' E 014°48'0 0.0
2017-Aug-24 23:28N 55°17' E 014°48'0 0.0
2017-Aug-24 22:59N 55°17' E 014°48'0 0.0
2017-Aug-24 22:29N 55°17' E 014°48'0 0.0
2017-Aug-24 21:58N 55°17' E 014°48'0 0.0
2017-Aug-24 21:22N 55°17' E 014°48'0 0.0
2017-Aug-24 20:59N 55°17' E 014°48'0 0.0
2017-Aug-24 20:28N 55°17' E 014°48'0 0.0
2017-Aug-24 19:58N 55°17' E 014°48'0 0.0
2017-Aug-24 19:28N 55°17' E 014°48'0 0.0
2017-Aug-24 18:58N 55°17' E 014°48'0 0.0
2017-Aug-24 18:28N 55°17' E 014°48'0 0.0
2017-Aug-24 17:52N 55°17' E 014°48'0 0.0
2017-Aug-24 17:29N 55°17' E 014°48'0 0.0
2017-Aug-24 16:52N 55°17' E 014°48'0 0.0
2017-Aug-24 16:29N 55°17' E 014°48'0 0.0
2017-Aug-24 15:58N 55°17' E 014°48'0 0.0
2017-Aug-24 15:16N 55°17' E 014°48'0 0.0
2017-Aug-24 14:58N 55°17' E 014°48'0 0.0
2017-Aug-24 14:28N 55°17' E 014°48'0 0.0
2017-Aug-24 13:59N 55°17' E 014°48'0 0.0
2017-Aug-24 13:28N 55°17' E 014°48'0 0.0
2017-Aug-24 12:58N 55°17' E 014°48'0 0.0
2017-Aug-24 12:22N 55°17' E 014°48'0 0.0
2017-Aug-24 11:52N 55°17' E 014°48'0 0.0
2017-Aug-24 11:30N 55°17' E 014°48'2 3.4
2017-Aug-24 11:01N 55°17' E 014°51'3 6.6
2017-Aug-24 10:30N 55°18' E 014°57'3 6.5
2017-Aug-24 10:01N 55°18' E 015°02'3 6.3
2017-Aug-24 09:30N 55°19' E 015°08'2 3.7
2017-Aug-24 08:59N 55°19' E 015°11'0 0.0
2017-Aug-24 08:29N 55°19' E 015°11'0 0.0
2017-Aug-24 07:59N 55°19' E 015°11'0 0.0
2017-Aug-24 07:29N 55°19' E 015°11'0 0.0
2017-Aug-24 06:58N 55°19' E 015°11'0 0.0
2017-Aug-24 06:28N 55°19' E 015°11'0 0.0
2017-Aug-24 05:58N 55°19' E 015°11'0 0.0
2017-Aug-24 05:28N 55°19' E 015°11'0 0.0
2017-Aug-24 04:58N 55°19' E 015°11'0 0.0
2017-Aug-24 04:28N 55°19' E 015°11'0 0.0
2017-Aug-24 03:58N 55°19' E 015°11'0 0.0
2017-Aug-24 03:28N 55°19' E 015°11'0 0.0
2017-Aug-24 02:58N 55°19' E 015°11'0 0.0
2017-Aug-24 02:28N 55°19' E 015°11'0 0.0
2017-Aug-24 01:58N 55°19' E 015°11'0 0.0
2017-Aug-24 01:28N 55°19' E 015°11'0 0.0
2017-Aug-24 00:58N 55°19' E 015°11'0 0.0
2017-Aug-24 00:28N 55°19' E 015°11'0 0.0
2017-Aug-23 23:58N 55°19' E 015°11'0 0.0
2017-Aug-23 23:28N 55°19' E 015°11'0 0.0
2017-Aug-23 22:58N 55°19' E 015°11'0 0.0
2017-Aug-23 22:28N 55°19' E 015°11'0 0.0
2017-Aug-23 21:58N 55°19' E 015°11'0 0.0
2017-Aug-23 21:28N 55°19' E 015°11'0 0.0
2017-Aug-23 20:58N 55°19' E 015°11'0 0.0
2017-Aug-23 20:28N 55°19' E 015°11'0 0.0
2017-Aug-23 19:58N 55°19' E 015°11'0 0.0
2017-Aug-23 19:28N 55°19' E 015°11'0 0.0
2017-Aug-23 18:58N 55°19' E 015°11'0 0.0
2017-Aug-23 18:28N 55°19' E 015°11'0 0.0
2017-Aug-23 17:58N 55°19' E 015°11'0 0.0
2017-Aug-23 17:28N 55°19' E 015°11'0 0.0
2017-Aug-23 16:58N 55°19' E 015°11'0 0.0
2017-Aug-23 16:28N 55°19' E 015°11'0 0.0
2017-Aug-23 16:01N 55°19' E 015°11'0 0.0
2017-Aug-23 15:31N 55°19' E 015°11'0 0.0
2017-Aug-23 15:01N 55°19' E 015°11'0 0.0
2017-Aug-23 14:01N 55°19' E 015°11'0 0.0
2017-Aug-23 13:31N 55°19' E 015°11'0 0.0
2017-Aug-23 13:00N 55°19' E 015°11'0 0.0
2017-Aug-23 12:31N 55°19' E 015°11'0 0.0
2017-Aug-23 12:01N 55°19' E 015°11'0 0.0
2017-Aug-23 11:30N 55°19' E 015°11'0 0.0
2017-Aug-23 11:01N 55°19' E 015°11'0 0.0
2017-Aug-23 10:31N 55°19' E 015°11'0 0.0
2017-Aug-23 10:01N 55°19' E 015°11'0 0.0
2017-Aug-23 09:31N 55°19' E 015°11'0 0.0
2017-Aug-23 09:01N 55°19' E 015°11'0 0.5
2017-Aug-23 08:31N 55°19' E 015°11'0 0.6
2017-Aug-23 07:59N 55°19' E 015°11'0 0.0
2017-Aug-23 07:29N 55°19' E 015°11'0 0.0
2017-Aug-23 06:59N 55°19' E 015°11'0 0.0
2017-Aug-23 06:29N 55°19' E 015°11'0 0.0
2017-Aug-23 05:59N 55°19' E 015°11'0 0.0
2017-Aug-23 05:29N 55°19' E 015°11'0 0.0
2017-Aug-23 04:59N 55°19' E 015°11'0 0.0
2017-Aug-23 04:29N 55°19' E 015°11'0 0.0
2017-Aug-23 03:59N 55°19' E 015°11'0 0.0
2017-Aug-23 03:29N 55°19' E 015°11'0 0.0
2017-Aug-23 02:59N 55°19' E 015°11'0 0.0
2017-Aug-23 02:29N 55°19' E 015°11'0 0.0
2017-Aug-23 01:59N 55°19' E 015°11'0 0.0
2017-Aug-23 01:29N 55°19' E 015°11'0 0.0
2017-Aug-23 00:59N 55°19' E 015°11'0 0.0
2017-Aug-23 00:29N 55°19' E 015°11'0 0.0
2017-Aug-22 23:59N 55°19' E 015°11'0 0.0
2017-Aug-22 23:29N 55°19' E 015°11'0 0.0
2017-Aug-22 22:59N 55°19' E 015°11'0 0.0
2017-Aug-22 22:23N 55°19' E 015°11'0 0.0
2017-Aug-22 21:59N 55°19' E 015°11'0 0.0
2017-Aug-22 21:29N 55°19' E 015°11'0 0.0
2017-Aug-22 20:59N 55°19' E 015°11'0 0.2
2017-Aug-22 20:30N 55°19' E 015°11'3 6.2
2017-Aug-22 20:00N 55°22' E 015°14'3 6.7
2017-Aug-22 19:31N 55°25' E 015°17'3 6.5
2017-Aug-22 19:00N 55°28' E 015°20'3 6.4
2017-Aug-22 18:29N 55°31' E 015°23'4 6.4
2017-Aug-22 17:54N 55°34' E 015°26'3 6.5
2017-Aug-22 17:26N 55°36' E 015°29'25 6.3
2017-Aug-22 13:29N 55°57' E 015°52'3 6.3
2017-Aug-22 13:00N 56°00' E 015°55'3 6.1
2017-Aug-22 12:30N 56°03' E 015°58'3 6.0
2017-Aug-22 12:00N 56°05' E 016°01'3 6.1
2017-Aug-22 11:30N 56°08' E 016°03'3 6.2
2017-Aug-22 11:00N 56°11' E 016°05'3 6.2
2017-Aug-22 10:30N 56°14' E 016°07'3 6.5
2017-Aug-22 10:00N 56°17' E 016°09'3 6.7
2017-Aug-22 09:30N 56°20' E 016°11'3 6.6
2017-Aug-22 09:00N 56°23' E 016°13'3 6.6
2017-Aug-22 08:30N 56°26' E 016°14'3 6.5
2017-Aug-22 08:00N 56°29' E 016°16'3 6.6
2017-Aug-22 07:30N 56°32' E 016°18'3 6.6
2017-Aug-22 07:00N 56°36' E 016°20'10 6.5
2017-Aug-22 05:25N 56°45' E 016°30'3 6.6
2017-Aug-22 04:57N 56°48' E 016°31'21 6.3
2017-Aug-22 01:40N 57°07' E 016°43'1 6.3
2017-Aug-22 01:26N 57°09' E 016°43'3 6.5
2017-Aug-22 01:00N 57°12' E 016°44'3 6.6
2017-Aug-22 00:30N 57°15' E 016°45'127 3.4
2017-Aug-20 10:39N 59°09' E 018°33'1 5.5
2017-Aug-20 10:30N 59°10' E 018°34'3 5.7
2017-Aug-20 10:00N 59°12' E 018°36'  
Track history (hours):
 
Tides and Currents Weather Stations Pressure Air Temp Water Temp Dewpoint Dewpoint Depression Visibility Wind Speed Wind Dir Waves Ship Positions

Dagmar Aaen

Last reported at 2017-Aug-30 08:42 UTC. Time now 2017-Sep-22 17:04 UTC.
Position N 54°47' E 010°29'.
Warning: this ship's position is 23 days out of date.

Length 24 m; beam 4.8 m; draft 2.5 m.

Type: Sailing vessel. MMSI: 211249810.

Date/timePositionNaut miles runAvg speedWind from/ knotsBaromVisibWave heightAir tempDewpointWater temp
2017-Aug-30 08:42N 54°47' E 010°29'3 6.2
2017-Aug-30 08:16N 54°46' E 010°34'2 6.5
2017-Aug-30 08:00N 54°46' E 010°37'2 4.2
2017-Aug-30 07:30N 54°45' E 010°40'0 0.0
2017-Aug-30 07:00N 54°45' E 010°40'0 0.0
2017-Aug-30 06:30N 54°45' E 010°40'0 0.0
2017-Aug-30 06:00N 54°45' E 010°40'0 0.0
2017-Aug-30 05:30N 54°45' E 010°40'0 0.0
2017-Aug-30 04:57N 54°45' E 010°40'0 0.0
2017-Aug-30 04:30N 54°45' E 010°40'0 0.0
2017-Aug-30 04:00N 54°45' E 010°40'0 0.0
2017-Aug-30 03:30N 54°45' E 010°40'0 0.0
2017-Aug-30 02:57N 54°45' E 010°40'0 0.0
2017-Aug-30 02:30N 54°45' E 010°40'0 0.0
2017-Aug-30 01:57N 54°45' E 010°40'0 0.0
2017-Aug-30 01:30N 54°45' E 010°40'0 0.0
2017-Aug-30 01:00N 54°45' E 010°40'0 0.0
2017-Aug-30 00:30N 54°45' E 010°40'0 0.0
2017-Aug-30 00:00N 54°45' E 010°40'0 0.0
2017-Aug-29 23:30N 54°45' E 010°40'0 0.0
2017-Aug-29 23:00N 54°45' E 010°40'0 0.0
2017-Aug-29 22:30N 54°45' E 010°40'0 0.0
2017-Aug-29 21:54N 54°45' E 010°40'0 0.0
2017-Aug-29 21:30N 54°45' E 010°40'0 0.0
2017-Aug-29 21:00N 54°45' E 010°40'0 0.0
2017-Aug-29 20:30N 54°45' E 010°40'0 0.0
2017-Aug-29 19:57N 54°45' E 010°40'0 0.0
2017-Aug-29 19:30N 54°45' E 010°40'0 0.0
2017-Aug-29 19:00N 54°45' E 010°40'0 0.0
2017-Aug-29 18:30N 54°45' E 010°40'0 0.0
2017-Aug-29 18:00N 54°45' E 010°40'0 0.0
2017-Aug-29 17:30N 54°45' E 010°40'0 0.0
2017-Aug-29 17:00N 54°45' E 010°40'0 0.9
2017-Aug-29 16:31N 54°45' E 010°40'3 5.3
2017-Aug-29 16:00N 54°43' E 010°41'3 6.0
2017-Aug-29 15:30N 54°42' E 010°46'3 6.8
2017-Aug-29 15:00N 54°40' E 010°52'4 7.1
2017-Aug-29 14:30N 54°39' E 010°57'4 7.0
2017-Aug-29 14:00N 54°38' E 011°03'4 7.1
2017-Aug-29 13:30N 54°37' E 011°09'4 7.4
2017-Aug-29 13:00N 54°36' E 011°15'4 7.2
2017-Aug-29 12:30N 54°34' E 011°21'4 7.0
2017-Aug-29 12:00N 54°33' E 011°26'3 6.8
2017-Aug-29 11:30N 54°32' E 011°32'2 4.9
2017-Aug-29 11:00N 54°31' E 011°36'2 3.3
2017-Aug-29 10:30N 54°31' E 011°39'2 3.9
2017-Aug-29 10:00N 54°31' E 011°42'2 4.3
2017-Aug-29 09:31N 54°31' E 011°46'2 4.7
2017-Aug-29 09:00N 54°33' E 011°46'3 5.3
2017-Aug-29 08:30N 54°36' E 011°46'2 4.7
2017-Aug-29 08:01N 54°38' E 011°46'2 3.9
2017-Aug-29 07:31N 54°40' E 011°44'0 0.0
2017-Aug-29 05:39N 54°40' E 011°44'0 0.0
2017-Aug-29 05:30N 54°40' E 011°44'0 0.0
2017-Aug-29 05:00N 54°40' E 011°44'0 0.0
2017-Aug-29 04:30N 54°40' E 011°44'0 0.0
2017-Aug-29 04:00N 54°40' E 011°44'0 0.0
2017-Aug-29 03:30N 54°40' E 011°44'0 0.0
2017-Aug-29 03:00N 54°40' E 011°44'0 0.0
2017-Aug-29 02:30N 54°40' E 011°44'0 0.0
2017-Aug-29 02:00N 54°40' E 011°44'0 0.0
2017-Aug-29 01:30N 54°40' E 011°44'0 0.0
2017-Aug-29 01:00N 54°40' E 011°44'0 0.0
2017-Aug-29 00:21N 54°40' E 011°44'0 0.0
2017-Aug-28 23:57N 54°40' E 011°44'0 0.0
2017-Aug-28 23:15N 54°40' E 011°44'0 0.0
2017-Aug-28 23:00N 54°40' E 011°44'0 0.0
2017-Aug-28 22:30N 54°40' E 011°44'0 0.0
2017-Aug-28 22:00N 54°40' E 011°44'0 0.0
2017-Aug-28 21:30N 54°40' E 011°44'0 0.0
2017-Aug-28 20:54N 54°40' E 011°44'0 0.0
2017-Aug-28 20:30N 54°40' E 011°44'0 0.0
2017-Aug-28 20:00N 54°40' E 011°44'0 0.0
2017-Aug-28 19:30N 54°40' E 011°44'0 0.0
2017-Aug-28 19:00N 54°40' E 011°44'0 0.0
2017-Aug-28 18:30N 54°40' E 011°44'0 0.0
2017-Aug-28 18:00N 54°40' E 011°44'0 0.0
2017-Aug-28 17:30N 54°40' E 011°44'0 0.0
2017-Aug-28 17:00N 54°40' E 011°44'0 0.0
2017-Aug-28 16:15N 54°40' E 011°44'0 0.0
2017-Aug-28 15:57N 54°40' E 011°44'0 0.0
2017-Aug-28 15:22N 54°40' E 011°44'1 2.2
2017-Aug-28 15:01N 54°39' E 011°44'2 5.0
2017-Aug-28 14:31N 54°37' E 011°47'3 6.0
2017-Aug-28 14:01N 54°34' E 011°46'3 5.7
2017-Aug-28 13:31N 54°33' E 011°50'3 5.8
2017-Aug-28 13:01N 54°32' E 011°55'3 5.8
2017-Aug-28 12:31N 54°33' E 012°00'3 5.6
2017-Aug-28 12:01N 54°35' E 012°03'27 6.2
2017-Aug-28 07:42N 54°57' E 012°28'49 1.6
2017-Aug-27 00:49N 54°31' E 013°39'0 0.0
2017-Aug-27 00:19N 54°31' E 013°39'0 0.0
2017-Aug-26 23:43N 54°31' E 013°39'0 0.0
2017-Aug-26 23:07N 54°31' E 013°39'0 0.0
2017-Aug-26 22:55N 54°31' E 013°39'0 0.0
2017-Aug-26 22:19N 54°31' E 013°39'0 0.0
2017-Aug-26 21:55N 54°31' E 013°39'0 0.0
2017-Aug-26 21:25N 54°31' E 013°39'0 0.0
2017-Aug-26 20:55N 54°31' E 013°39'0 0.0
2017-Aug-26 20:25N 54°31' E 013°39'0 0.0
2017-Aug-26 19:49N 54°31' E 013°39'0 0.0
2017-Aug-26 19:25N 54°31' E 013°39'0 0.0
2017-Aug-26 18:37N 54°31' E 013°39'0 0.0
2017-Aug-26 18:25N 54°31' E 013°39'33 4.7
2017-Aug-26 11:29N 54°46' E 014°28'4 6.3
2017-Aug-26 10:50N 54°48' E 014°34'2 6.3
2017-Aug-26 10:29N 54°49' E 014°38'3 6.3
2017-Aug-26 10:00N 54°51' E 014°42'3 6.2
2017-Aug-26 09:30N 54°52' E 014°47'3 6.1
2017-Aug-26 09:00N 54°54' E 014°51'3 6.1
2017-Aug-26 08:30N 54°55' E 014°56'3 6.0
2017-Aug-26 08:00N 54°57' E 015°00'3 6.0
2017-Aug-26 07:30N 54°58' E 015°05'6 0.4
2017-Aug-25 15:08N 55°04' E 015°08'1 5.6
2017-Aug-25 14:55N 55°05' E 015°10'2 4.5
2017-Aug-25 14:31N 55°06' E 015°12'3 3.4
2017-Aug-25 13:30N 55°09' E 015°10'3 5.1
2017-Aug-25 13:00N 55°11' E 015°07'3 5.2
2017-Aug-25 12:30N 55°12' E 015°03'3 5.1
2017-Aug-25 12:01N 55°14' E 014°60'3 5.6
2017-Aug-25 11:30N 55°16' E 014°56'3 5.7
2017-Aug-25 11:00N 55°17' E 014°51'3 6.1
2017-Aug-25 10:30N 55°19' E 014°47'2 3.1
2017-Aug-25 10:00N 55°17' E 014°48'1 1.0
2017-Aug-25 09:23N 55°17' E 014°48'0 0.0
2017-Aug-25 08:59N 55°17' E 014°48'0 0.0
2017-Aug-25 08:28N 55°17' E 014°48'0 0.0
2017-Aug-25 07:58N 55°17' E 014°48'0 0.0
2017-Aug-25 07:29N 55°17' E 014°48'0 0.0
2017-Aug-25 06:52N 55°17' E 014°48'0 0.0
2017-Aug-25 06:28N 55°17' E 014°48'0 0.0
2017-Aug-25 05:58N 55°17' E 014°48'0 0.0
2017-Aug-25 05:28N 55°17' E 014°48'0 0.0
2017-Aug-25 04:58N 55°17' E 014°48'0 0.0
2017-Aug-25 04:28N 55°17' E 014°48'0 0.0
2017-Aug-25 03:58N 55°17' E 014°48'0 0.0
2017-Aug-25 03:22N 55°17' E 014°48'0 0.0
2017-Aug-25 02:58N 55°17' E 014°48'0 0.0
2017-Aug-25 02:28N 55°17' E 014°48'0 0.0
2017-Aug-25 01:59N 55°17' E 014°48'0 0.0
2017-Aug-25 01:28N 55°17' E 014°48'0 0.0
2017-Aug-25 00:59N 55°17' E 014°48'0 0.0
2017-Aug-25 00:29N 55°17' E 014°48'0 0.0
2017-Aug-24 23:58N 55°17' E 014°48'0 0.0
2017-Aug-24 23:28N 55°17' E 014°48'0 0.0
2017-Aug-24 22:59N 55°17' E 014°48'0 0.0
2017-Aug-24 22:29N 55°17' E 014°48'0 0.0
2017-Aug-24 21:58N 55°17' E 014°48'0 0.0
2017-Aug-24 21:22N 55°17' E 014°48'0 0.0
2017-Aug-24 20:59N 55°17' E 014°48'0 0.0
2017-Aug-24 20:28N 55°17' E 014°48'0 0.0
2017-Aug-24 19:58N 55°17' E 014°48'0 0.0
2017-Aug-24 19:28N 55°17' E 014°48'0 0.0
2017-Aug-24 18:58N 55°17' E 014°48'0 0.0
2017-Aug-24 18:28N 55°17' E 014°48'0 0.0
2017-Aug-24 17:52N 55°17' E 014°48'0 0.0
2017-Aug-24 17:29N 55°17' E 014°48'0 0.0
2017-Aug-24 16:52N 55°17' E 014°48'0 0.0
2017-Aug-24 16:29N 55°17' E 014°48'0 0.0
2017-Aug-24 15:58N 55°17' E 014°48'0 0.0
2017-Aug-24 15:16N 55°17' E 014°48'0 0.0
2017-Aug-24 14:58N 55°17' E 014°48'0 0.0
2017-Aug-24 14:28N 55°17' E 014°48'0 0.0
2017-Aug-24 13:59N 55°17' E 014°48'0 0.0
2017-Aug-24 13:28N 55°17' E 014°48'0 0.0
2017-Aug-24 12:58N 55°17' E 014°48'0 0.0
2017-Aug-24 12:22N 55°17' E 014°48'0 0.0
2017-Aug-24 11:52N 55°17' E 014°48'0 0.0
2017-Aug-24 11:30N 55°17' E 014°48'2 3.4
2017-Aug-24 11:01N 55°17' E 014°51'3 6.6
2017-Aug-24 10:30N 55°18' E 014°57'3 6.5
2017-Aug-24 10:01N 55°18' E 015°02'3 6.3
2017-Aug-24 09:30N 55°19' E 015°08'2 3.7
2017-Aug-24 08:59N 55°19' E 015°11'0 0.0
2017-Aug-24 08:29N 55°19' E 015°11'0 0.0
2017-Aug-24 07:59N 55°19' E 015°11'0 0.0
2017-Aug-24 07:29N 55°19' E 015°11'0 0.0
2017-Aug-24 06:58N 55°19' E 015°11'0 0.0
2017-Aug-24 06:28N 55°19' E 015°11'0 0.0
2017-Aug-24 05:58N 55°19' E 015°11'0 0.0
2017-Aug-24 05:28N 55°19' E 015°11'0 0.0
2017-Aug-24 04:58N 55°19' E 015°11'0 0.0
2017-Aug-24 04:28N 55°19' E 015°11'0 0.0
2017-Aug-24 03:58N 55°19' E 015°11'0 0.0
2017-Aug-24 03:28N 55°19' E 015°11'0 0.0
2017-Aug-24 02:58N 55°19' E 015°11'0 0.0
2017-Aug-24 02:28N 55°19' E 015°11'0 0.0
2017-Aug-24 01:58N 55°19' E 015°11'0 0.0
2017-Aug-24 01:28N 55°19' E 015°11'0 0.0
2017-Aug-24 00:58N 55°19' E 015°11'0 0.0
2017-Aug-24 00:28N 55°19' E 015°11'0 0.0
2017-Aug-23 23:58N 55°19' E 015°11'0 0.0
2017-Aug-23 23:28N 55°19' E 015°11'0 0.0
2017-Aug-23 22:58N 55°19' E 015°11'0 0.0
2017-Aug-23 22:28N 55°19' E 015°11'0 0.0
2017-Aug-23 21:58N 55°19' E 015°11'0 0.0
2017-Aug-23 21:28N 55°19' E 015°11'0 0.0
2017-Aug-23 20:58N 55°19' E 015°11'0 0.0
2017-Aug-23 20:28N 55°19' E 015°11'0 0.0
2017-Aug-23 19:58N 55°19' E 015°11'0 0.0
2017-Aug-23 19:28N 55°19' E 015°11'0 0.0
2017-Aug-23 18:58N 55°19' E 015°11'0 0.0
2017-Aug-23 18:28N 55°19' E 015°11'0 0.0
2017-Aug-23 17:58N 55°19' E 015°11'0 0.0
2017-Aug-23 17:28N 55°19' E 015°11'0 0.0
2017-Aug-23 16:58N 55°19' E 015°11'0 0.0
2017-Aug-23 16:28N 55°19' E 015°11'0 0.0
2017-Aug-23 16:01N 55°19' E 015°11'0 0.0
2017-Aug-23 15:31N 55°19' E 015°11'0 0.0
2017-Aug-23 15:01N 55°19' E 015°11'0 0.0
2017-Aug-23 14:01N 55°19' E 015°11'0 0.0
2017-Aug-23 13:31N 55°19' E 015°11'0 0.0
2017-Aug-23 13:00N 55°19' E 015°11'0 0.0
2017-Aug-23 12:31N 55°19' E 015°11'0 0.0
2017-Aug-23 12:01N 55°19' E 015°11'0 0.0
2017-Aug-23 11:30N 55°19' E 015°11'0 0.0
2017-Aug-23 11:01N 55°19' E 015°11'0 0.0
2017-Aug-23 10:31N 55°19' E 015°11'0 0.0
2017-Aug-23 10:01N 55°19' E 015°11'0 0.0
2017-Aug-23 09:31N 55°19' E 015°11'0 0.0
2017-Aug-23 09:01N 55°19' E 015°11'0 0.5
2017-Aug-23 08:31N 55°19' E 015°11'0 0.6
2017-Aug-23 07:59N 55°19' E 015°11'0 0.0
2017-Aug-23 07:29N 55°19' E 015°11'0 0.0
2017-Aug-23 06:59N 55°19' E 015°11'0 0.0
2017-Aug-23 06:29N 55°19' E 015°11'0 0.0
2017-Aug-23 05:59N 55°19' E 015°11'0 0.0
2017-Aug-23 05:29N 55°19' E 015°11'0 0.0
2017-Aug-23 04:59N 55°19' E 015°11'0 0.0
2017-Aug-23 04:29N 55°19' E 015°11'0 0.0
2017-Aug-23 03:59N 55°19' E 015°11'0 0.0
2017-Aug-23 03:29N 55°19' E 015°11'0 0.0
2017-Aug-23 02:59N 55°19' E 015°11'0 0.0
2017-Aug-23 02:29N 55°19' E 015°11'0 0.0
2017-Aug-23 01:59N 55°19' E 015°11'0 0.0
2017-Aug-23 01:29N 55°19' E 015°11'0 0.0
2017-Aug-23 00:59N 55°19' E 015°11'0 0.0
2017-Aug-23 00:29N 55°19' E 015°11'0 0.0
2017-Aug-22 23:59N 55°19' E 015°11'0 0.0
2017-Aug-22 23:29N 55°19' E 015°11'0 0.0
2017-Aug-22 22:59N 55°19' E 015°11'0 0.0
2017-Aug-22 22:23N 55°19' E 015°11'0 0.0
2017-Aug-22 21:59N 55°19' E 015°11'0 0.0
2017-Aug-22 21:29N 55°19' E 015°11'0 0.0
2017-Aug-22 20:59N 55°19' E 015°11'0 0.2
2017-Aug-22 20:30N 55°19' E 015°11'3 6.2
2017-Aug-22 20:00N 55°22' E 015°14'3 6.7
2017-Aug-22 19:31N 55°25' E 015°17'3 6.5
2017-Aug-22 19:00N 55°28' E 015°20'3 6.4
2017-Aug-22 18:29N 55°31' E 015°23'4 6.4
2017-Aug-22 17:54N 55°34' E 015°26'3 6.5
2017-Aug-22 17:26N 55°36' E 015°29'25 6.3
2017-Aug-22 13:29N 55°57' E 015°52'3 6.3
2017-Aug-22 13:00N 56°00' E 015°55'3 6.1
2017-Aug-22 12:30N 56°03' E 015°58'3 6.0
2017-Aug-22 12:00N 56°05' E 016°01'3 6.1
2017-Aug-22 11:30N 56°08' E 016°03'3 6.2
2017-Aug-22 11:00N 56°11' E 016°05'3 6.2
2017-Aug-22 10:30N 56°14' E 016°07'3 6.5
2017-Aug-22 10:00N 56°17' E 016°09'3 6.7
2017-Aug-22 09:30N 56°20' E 016°11'3 6.6
2017-Aug-22 09:00N 56°23' E 016°13'3 6.6
2017-Aug-22 08:30N 56°26' E 016°14'3 6.5
2017-Aug-22 08:00N 56°29' E 016°16'3 6.6
2017-Aug-22 07:30N 56°32' E 016°18'3 6.6
2017-Aug-22 07:00N 56°36' E 016°20'10 6.5
2017-Aug-22 05:25N 56°45' E 016°30'3 6.6
2017-Aug-22 04:57N 56°48' E 016°31'21 6.3
2017-Aug-22 01:40N 57°07' E 016°43'1 6.3
2017-Aug-22 01:26N 57°09' E 016°43'3 6.5
2017-Aug-22 01:00N 57°12' E 016°44'3 6.6
2017-Aug-22 00:30N 57°15' E 016°45'127 3.4
2017-Aug-20 10:39N 59°09' E 018°33'1 5.5
2017-Aug-20 10:30N 59°10' E 018°34'3 5.7
2017-Aug-20 10:00N 59°12' E 018°36'  

Dump ship's entire track history